BISN weather

Svínafell Airport
Svínafell, Eastern Region, Iceland

Public forecast

Using degrees Celsius for public forecast. Weather courtesy of forecast.io.

METAR (pilot weather report)

Closest report is Hornafjörður Airport, 6.6 nm (12.3 km) SE. Retrieved 2019/06/15 22:00 UTC (12 minutes ago):

BIHN 152200Z 28004KT 9999 FEW015 SCT027 BKN045 10/07 Q1017

TAF (pilot weather forecast)

Closest forecast is Egilsstaðir Airport, 59.6 nm (110.3 km) NNE. Retrieved 2019/06/15 21:57 UTC (15 minutes ago):

TAF BIAR 151953Z 1521/1621 35005KT 9999 FEW040 TX15/1521Z TN10/1604Z= TAF BIEG 151953Z 1521/1621 36015KT 9999 SCT010 BKN025 TX17/1615Z TN06/1603Z TEMPO 1521/1600 BKN008 OVC040 BECMG 1600/1603 01005KT PROB40 TEMPO 1600/1606 0800 FG VV002 BECMG 1611/1614 SCT035